createdAt,value
2022-11-28T00:02:17.987Z,-1.90
2022-11-28T00:07:20.017Z,-1.80
2022-11-28T00:12:21.958Z,-1.80
2022-11-28T00:17:23.762Z,-1.80
2022-11-28T00:22:28.097Z,-1.70
2022-11-28T00:27:30.003Z,-1.80
2022-11-28T00:32:31.740Z,-1.90
2022-11-28T00:37:33.721Z,-1.80
2022-11-28T00:42:35.446Z,-1.80
2022-11-28T00:47:37.304Z,-1.80
2022-11-28T00:52:39.156Z,-1.90
2022-11-28T00:57:40.879Z,-1.90
2022-11-28T01:02:42.755Z,-1.80
2022-11-28T01:07:44.579Z,-1.80
2022-11-28T01:12:46.382Z,-1.80
2022-11-28T01:17:48.110Z,-1.80
2022-11-28T01:22:50.020Z,-1.80
2022-11-28T01:27:51.959Z,-1.80
2022-11-28T01:32:54.134Z,-1.80
2022-11-28T01:37:55.918Z,-1.90
2022-11-28T01:42:57.746Z,-1.80
2022-11-28T01:48:03.019Z,-1.80
2022-11-28T01:53:08.453Z,-1.90
2022-11-28T01:58:11.830Z,-1.80
2022-11-28T02:03:36.006Z,-1.90
2022-11-28T02:08:37.883Z,-1.80
2022-11-28T02:13:52.417Z,-1.90
2022-11-28T02:19:27.865Z,-1.90
2022-11-28T02:24:37.971Z,-1.90
2022-11-28T02:29:40.165Z,-1.90
2022-11-28T02:35:12.728Z,-1.90
2022-11-28T02:40:20.457Z,-1.90
2022-11-28T02:45:43.198Z,-1.90
2022-11-28T02:51:16.630Z,-1.90
2022-11-28T02:56:18.383Z,-1.90
2022-11-28T03:01:25.761Z,-1.90
2022-11-28T03:06:59.970Z,-1.80
2022-11-28T03:12:27.806Z,-1.80
2022-11-28T03:17:32.878Z,-1.80
2022-11-28T03:22:50.005Z,-1.80
2022-11-28T03:28:02.159Z,-1.80
2022-11-28T03:33:06.020Z,-1.80
2022-11-28T03:38:16.234Z,-1.80
2022-11-28T03:43:22.247Z,-1.80
2022-11-28T03:48:38.471Z,-1.80
2022-11-28T03:53:49.386Z,-1.80
2022-11-28T03:59:09.571Z,-1.90
2022-11-28T04:04:50.211Z,-2.00
2022-11-28T04:10:08.026Z,-1.90
2022-11-28T04:15:17.758Z,-2.00
2022-11-28T04:20:32.948Z,-1.90
2022-11-28T04:25:38.094Z,-2.00
2022-11-28T04:30:43.813Z,-1.90
2022-11-28T04:35:50.453Z,-1.90
2022-11-28T04:40:57.602Z,-1.90
2022-11-28T04:46:13.219Z,-2.00
2022-11-28T04:51:33.061Z,-1.90
2022-11-28T04:56:59.023Z,-1.90
2022-11-28T05:02:04.510Z,-1.90
2022-11-28T05:07:08.703Z,-1.90
2022-11-28T05:12:10.485Z,-2.00
2022-11-28T05:17:13.397Z,-2.00
2022-11-28T05:22:15.366Z,-2.00
2022-11-28T05:27:17.181Z,-1.90
2022-11-28T05:32:19.194Z,-1.90
2022-11-28T05:37:21.300Z,-1.90
2022-11-28T05:42:23.268Z,-1.90
2022-11-28T05:47:25.313Z,-1.90
2022-11-28T05:52:29.610Z,-1.90
2022-11-28T05:57:32.063Z,-1.90
2022-11-28T06:02:36.164Z,-2.00
2022-11-28T06:07:38.344Z,-1.90
2022-11-28T06:12:40.146Z,-1.90
2022-11-28T06:17:42.036Z,-1.90
2022-11-28T06:22:45.969Z,-2.00
2022-11-28T06:27:47.908Z,-2.00
2022-11-28T06:32:49.964Z,-1.90
2022-11-28T06:37:51.764Z,-2.00
2022-11-28T06:42:53.646Z,-2.00
2022-11-28T06:47:55.434Z,-2.00
2022-11-28T06:52:57.216Z,-1.90
2022-11-28T06:57:58.972Z,-1.90
2022-11-28T07:03:00.707Z,-1.90
2022-11-28T07:08:02.815Z,-1.90
2022-11-28T07:13:05.683Z,-1.90
2022-11-28T07:18:07.765Z,-1.80
2022-11-28T07:23:09.562Z,-1.70
2022-11-28T07:28:11.445Z,-1.70
2022-11-28T07:33:13.413Z,-1.60
2022-11-28T07:38:15.184Z,-1.50
2022-11-28T07:43:17.393Z,-1.50
2022-11-28T07:48:19.328Z,-1.40
2022-11-28T07:53:21.390Z,-1.30
2022-11-28T07:58:23.124Z,-1.30
2022-11-28T08:03:24.910Z,-1.30
2022-11-28T08:08:26.866Z,-1.20
2022-11-28T08:13:29.426Z,-1.20
2022-11-28T08:18:31.172Z,-1.10
2022-11-28T08:23:34.889Z,-1.10
2022-11-28T08:28:37.033Z,-1.10
2022-11-28T08:33:39.130Z,-1.10
2022-11-28T08:38:46.993Z,-1.00
2022-11-28T08:43:55.362Z,-0.90
2022-11-28T08:48:57.139Z,-0.90
2022-11-28T08:53:59.969Z,-0.90
2022-11-28T08:59:03.750Z,-0.70
2022-11-28T09:04:06.013Z,-0.60
2022-11-28T09:09:09.119Z,-0.50
2022-11-28T09:14:11.133Z,-0.60
2022-11-28T09:19:13.001Z,-0.60
2022-11-28T09:24:14.795Z,-0.60
2022-11-28T09:29:16.878Z,-0.60
2022-11-28T09:34:18.634Z,-0.70
2022-11-28T09:39:20.565Z,-0.70
2022-11-28T09:44:37.998Z,-0.70
2022-11-28T09:49:48.571Z,-0.70
2022-11-28T09:55:17.153Z,-0.50
2022-11-28T10:00:28.787Z,-0.30
2022-11-28T10:05:43.461Z,-0.20
2022-11-28T10:11:03.675Z,0.20
2022-11-28T10:16:21.057Z,0.30
2022-11-28T10:21:33.158Z,0.00
2022-11-28T10:26:38.130Z,0.00
2022-11-28T10:31:43.908Z,0.20
2022-11-28T10:36:48.810Z,0.10
2022-11-28T10:42:27.167Z,0.10
2022-11-28T10:47:47.682Z,0.10
2022-11-28T10:53:18.466Z,0.10
2022-11-28T10:58:20.254Z,0.10
2022-11-28T11:03:29.059Z,0.00
2022-11-28T11:08:36.035Z,0.00
2022-11-28T11:14:13.382Z,0.00
2022-11-28T11:19:36.250Z,0.00
2022-11-28T11:24:38.167Z,0.00
2022-11-28T11:29:41.380Z,0.10
2022-11-28T11:34:45.577Z,0.20
2022-11-28T11:39:52.358Z,0.20
2022-11-28T11:44:54.602Z,0.10
2022-11-28T11:50:04.700Z,0.20
2022-11-28T11:55:16.397Z,0.20
2022-11-28T12:00:21.055Z,0.20
2022-11-28T12:06:12.598Z,0.10
2022-11-28T12:11:18.880Z,0.30
2022-11-28T12:16:44.134Z,0.30
2022-11-28T12:21:58.162Z,0.20
2022-11-28T12:27:29.788Z,0.30
2022-11-28T12:33:08.818Z,0.30
2022-11-28T12:38:23.047Z,0.30
2022-11-28T12:43:38.800Z,0.10
2022-11-28T12:49:18.002Z,0.10
2022-11-28T12:54:33.883Z,0.10
2022-11-28T12:59:49.548Z,0.10
2022-11-28T13:05:15.043Z,0.10
2022-11-28T13:10:16.790Z,0.00
2022-11-28T13:15:44.559Z,0.00
2022-11-28T13:21:03.512Z,0.00
2022-11-28T13:26:25.614Z,0.10
2022-11-28T13:31:40.275Z,0.00
2022-11-28T13:43:07.773Z,-0.10
2022-11-28T13:54:20.003Z,0.00
2022-11-28T13:59:23.196Z,-0.10
2022-11-28T14:04:26.721Z,-0.10
2022-11-28T14:09:44.611Z,-0.20
2022-11-28T14:14:58.288Z,-0.10
2022-11-28T14:20:14.189Z,-0.10
2022-11-28T14:25:27.971Z,-0.10
2022-11-28T14:30:41.274Z,-0.10
2022-11-28T14:35:52.321Z,-0.10
2022-11-28T14:40:57.003Z,0.00
2022-11-28T14:46:29.443Z,0.00
2022-11-28T14:52:00.092Z,-0.10
2022-11-28T14:57:30.393Z,0.00
2022-11-28T15:03:05.453Z,-0.10
2022-11-28T15:08:32.213Z,-0.10
2022-11-28T15:13:58.990Z,-0.10
2022-11-28T15:19:34.545Z,-0.10
2022-11-28T15:24:38.112Z,-0.10
2022-11-28T15:29:39.862Z,-0.10
2022-11-28T15:34:42.437Z,-0.10
2022-11-28T15:39:47.898Z,-0.10
2022-11-28T15:45:05.178Z,-0.10
2022-11-28T15:50:09.930Z,-0.10
2022-11-28T15:55:17.780Z,-0.10
2022-11-28T16:00:22.066Z,-0.10
2022-11-28T16:05:23.938Z,-0.10
2022-11-28T16:10:32.045Z,-0.20
2022-11-28T16:15:33.916Z,-0.10
2022-11-28T16:20:37.523Z,-0.10
2022-11-28T16:25:39.385Z,-0.10
2022-11-28T16:30:48.321Z,-0.10
2022-11-28T16:35:50.148Z,-0.10
2022-11-28T16:40:59.054Z,-0.10
2022-11-28T16:46:04.282Z,-0.10
2022-11-28T16:51:12.242Z,-0.10
2022-11-28T16:56:41.564Z,-0.10
2022-11-28T17:01:45.732Z,-0.10
2022-11-28T17:06:47.901Z,-0.10
2022-11-28T17:12:21.749Z,-0.10
2022-11-28T17:17:23.810Z,-0.10
2022-11-28T17:22:37.460Z,-0.10
2022-11-28T17:27:42.966Z,-0.10
2022-11-28T17:32:47.110Z,-0.20
2022-11-28T17:37:49.079Z,-0.10
2022-11-28T17:42:50.783Z,-0.10
2022-11-28T17:47:52.874Z,0.00
2022-11-28T17:52:54.638Z,-0.10
2022-11-28T17:57:56.478Z,-0.10
2022-11-28T18:02:58.417Z,-0.10
2022-11-28T18:08:00.199Z,-0.10
2022-11-28T18:13:02.141Z,-0.10
2022-11-28T18:18:04.630Z,-0.10
2022-11-28T18:23:06.528Z,-0.10
2022-11-28T18:28:08.254Z,0.00
2022-11-28T18:33:11.431Z,-0.10
2022-11-28T18:38:13.179Z,-0.10
2022-11-28T18:43:14.974Z,-0.10
2022-11-28T18:48:16.721Z,-0.10
2022-11-28T18:53:18.484Z,-0.10
2022-11-28T18:58:20.218Z,-0.10
2022-11-28T19:03:22.077Z,-0.10
2022-11-28T19:08:23.814Z,-0.10
2022-11-28T19:13:25.581Z,-0.10
2022-11-28T19:18:27.316Z,-0.10
2022-11-28T19:23:29.699Z,0.00
2022-11-28T19:28:31.836Z,0.00
2022-11-28T19:33:34.102Z,0.00
2022-11-28T19:38:37.430Z,0.00
2022-11-28T19:43:40.089Z,0.00
2022-11-28T19:48:42.878Z,0.10
2022-11-28T19:53:45.063Z,0.00
2022-11-28T19:58:47.587Z,0.10
2022-11-28T20:03:51.099Z,0.00
2022-11-28T20:08:55.558Z,0.10
2022-11-28T20:13:59.482Z,0.00
2022-11-28T20:19:02.085Z,0.00
2022-11-28T20:24:07.477Z,0.10
2022-11-28T20:29:14.354Z,0.10
2022-11-28T20:34:18.214Z,0.10
2022-11-28T20:39:20.021Z,0.10
2022-11-28T20:44:21.913Z,0.20
2022-11-28T20:49:23.682Z,0.20
2022-11-28T20:54:26.041Z,0.10
2022-11-28T20:59:27.858Z,0.10
2022-11-28T21:04:29.648Z,0.10
2022-11-28T21:09:31.344Z,0.20
2022-11-28T21:14:33.079Z,0.20
2022-11-28T21:19:34.938Z,0.20
2022-11-28T21:24:36.804Z,0.20
2022-11-28T21:29:38.689Z,0.20
2022-11-28T21:34:40.462Z,0.20
2022-11-28T21:39:42.409Z,0.20
2022-11-28T21:44:44.416Z,0.20
2022-11-28T21:49:46.285Z,0.20
2022-11-28T21:54:48.301Z,0.20
2022-11-28T21:59:50.119Z,0.30
2022-11-28T22:04:52.096Z,0.30
2022-11-28T22:09:54.350Z,0.20
2022-11-28T22:14:56.157Z,0.30
2022-11-28T22:19:58.120Z,0.30
2022-11-28T22:24:59.916Z,0.30
2022-11-28T22:30:01.674Z,0.30
2022-11-28T22:35:03.666Z,0.40
2022-11-28T22:40:06.087Z,0.30
2022-11-28T22:45:08.465Z,0.30
2022-11-28T22:50:10.598Z,0.30
2022-11-28T22:55:12.510Z,0.30
2022-11-28T23:00:15.676Z,0.30
2022-11-28T23:05:17.422Z,0.30
2022-11-28T23:10:19.442Z,0.30
2022-11-28T23:15:21.325Z,0.40
2022-11-28T23:20:23.989Z,0.30
2022-11-28T23:25:25.874Z,0.40
2022-11-28T23:30:27.836Z,0.40
2022-11-28T23:35:30.884Z,0.40
2022-11-28T23:40:32.629Z,0.30
2022-11-28T23:45:34.564Z,0.40
2022-11-28T23:50:36.261Z,0.40
2022-11-28T23:55:38.044Z,0.40
